sensor_id;sensor_type;location;lat;lon;timestamp;temperature;humidity
18434;DHT22;9344;52.294;13.626;2022-10-28T00:01:26;14.20;99.90
18434;DHT22;9344;52.294;13.626;2022-10-28T00:03:54;14.30;99.90
18434;DHT22;9344;52.294;13.626;2022-10-28T00:06:23;14.20;99.90
18434;DHT22;9344;52.294;13.626;2022-10-28T00:08:49;14.20;99.90
18434;DHT22;9344;52.294;13.626;2022-10-28T00:11:19;14.10;99.90
18434;DHT22;9344;52.294;13.626;2022-10-28T00:13:46;14.00;99.90
18434;DHT22;9344;52.294;13.626;2022-10-28T00:16:15;14.00;99.90
18434;DHT22;9344;52.294;13.626;2022-10-28T00:18:43;14.00;99.90
18434;DHT22;9344;52.294;13.626;2022-10-28T00:21:11;14.00;99.90
18434;DHT22;9344;52.294;13.626;2022-10-28T00:23:38;14.00;99.90
18434;DHT22;9344;52.294;13.626;2022-10-28T00:26:06;14.00;99.90
18434;DHT22;9344;52.294;13.626;2022-10-28T00:28:38;14.00;99.90
18434;DHT22;9344;52.294;13.626;2022-10-28T00:31:05;14.00;99.90
18434;DHT22;9344;52.294;13.626;2022-10-28T00:33:32;14.00;99.90
18434;DHT22;9344;52.294;13.626;2022-10-28T00:36:10;14.00;99.90
18434;DHT22;9344;52.294;13.626;2022-10-28T00:38:37;14.00;99.90
18434;DHT22;9344;52.294;13.626;2022-10-28T00:41:04;14.00;99.90
18434;DHT22;9344;52.294;13.626;2022-10-28T00:43:39;14.00;99.90
18434;DHT22;9344;52.294;13.626;2022-10-28T00:46:16;14.00;99.90
18434;DHT22;9344;52.294;13.626;2022-10-28T00:48:46;14.00;99.90
18434;DHT22;9344;52.294;13.626;2022-10-28T00:51:15;14.00;99.90
18434;DHT22;9344;52.294;13.626;2022-10-28T00:53:43;14.00;99.90
18434;DHT22;9344;52.294;13.626;2022-10-28T00:56:12;13.60;99.90
18434;DHT22;9344;52.294;13.626;2022-10-28T00:58:42;14.00;99.90
18434;DHT22;9344;52.294;13.626;2022-10-28T01:01:09;14.00;99.90
18434;DHT22;9344;52.294;13.626;2022-10-28T01:03:36;14.00;99.90
18434;DHT22;9344;52.294;13.626;2022-10-28T01:06:03;14.00;99.90
18434;DHT22;9344;52.294;13.626;2022-10-28T01:08:30;14.00;99.90
18434;DHT22;9344;52.294;13.626;2022-10-28T01:11:16;14.00;99.90
18434;DHT22;9344;52.294;13.626;2022-10-28T01:13:56;14.00;99.90
18434;DHT22;9344;52.294;13.626;2022-10-28T01:16:34;14.00;99.90
18434;DHT22;9344;52.294;13.626;2022-10-28T01:19:18;14.00;99.90
18434;DHT22;9344;52.294;13.626;2022-10-28T01:22:07;14.00;99.90
18434;DHT22;9344;52.294;13.626;2022-10-28T01:24:52;12.40;99.90
18434;DHT22;9344;52.294;13.626;2022-10-28T01:27:53;14.00;99.90
18434;DHT22;9344;52.294;13.626;2022-10-28T01:30:23;14.10;99.90
18434;DHT22;9344;52.294;13.626;2022-10-28T01:32:58;14.00;99.90
18434;DHT22;9344;52.294;13.626;2022-10-28T01:35:29;14.00;99.90
18434;DHT22;9344;52.294;13.626;2022-10-28T01:38:10;14.10;99.90
18434;DHT22;9344;52.294;13.626;2022-10-28T01:40:45;14.10;99.90
18434;DHT22;9344;52.294;13.626;2022-10-28T01:43:18;14.00;99.90
18434;DHT22;9344;52.294;13.626;2022-10-28T01:45:50;14.10;99.90
18434;DHT22;9344;52.294;13.626;2022-10-28T01:48:26;14.10;99.90
18434;DHT22;9344;52.294;13.626;2022-10-28T01:50:58;14.00;99.90
18434;DHT22;9344;52.294;13.626;2022-10-28T01:53:29;14.00;99.90
18434;DHT22;9344;52.294;13.626;2022-10-28T01:55:59;13.90;99.90
18434;DHT22;9344;52.294;13.626;2022-10-28T01:58:29;14.00;99.90
18434;DHT22;9344;52.294;13.626;2022-10-28T02:00:58;14.00;99.90
18434;DHT22;9344;52.294;13.626;2022-10-28T02:03:27;14.00;99.90
18434;DHT22;9344;52.294;13.626;2022-10-28T02:05:55;14.00;99.90
18434;DHT22;9344;52.294;13.626;2022-10-28T02:08:32;14.00;99.90
18434;DHT22;9344;52.294;13.626;2022-10-28T02:11:10;14.00;99.90
18434;DHT22;9344;52.294;13.626;2022-10-28T02:13:45;14.10;99.90
18434;DHT22;9344;52.294;13.626;2022-10-28T02:16:19;14.00;99.90
18434;DHT22;9344;52.294;13.626;2022-10-28T02:18:55;14.00;99.90
18434;DHT22;9344;52.294;13.626;2022-10-28T02:21:32;14.00;99.90
18434;DHT22;9344;52.294;13.626;2022-10-28T02:24:09;14.00;99.90
18434;DHT22;9344;52.294;13.626;2022-10-28T02:26:40;14.00;99.90
18434;DHT22;9344;52.294;13.626;2022-10-28T02:29:13;14.00;99.90
18434;DHT22;9344;52.294;13.626;2022-10-28T02:31:43;14.00;99.90
18434;DHT22;9344;52.294;13.626;2022-10-28T02:34:16;14.00;99.90
18434;DHT22;9344;52.294;13.626;2022-10-28T02:36:46;14.00;99.90
18434;DHT22;9344;52.294;13.626;2022-10-28T02:39:15;13.90;99.90
18434;DHT22;9344;52.294;13.626;2022-10-28T02:41:45;13.90;99.90
18434;DHT22;9344;52.294;13.626;2022-10-28T02:44:18;13.80;99.90
18434;DHT22;9344;52.294;13.626;2022-10-28T02:46:48;13.90;99.90
18434;DHT22;9344;52.294;13.626;2022-10-28T02:49:16;13.90;99.90
18434;DHT22;9344;52.294;13.626;2022-10-28T02:51:45;13.90;99.90
18434;DHT22;9344;52.294;13.626;2022-10-28T02:54:17;13.90;99.90
18434;DHT22;9344;52.294;13.626;2022-10-28T02:56:49;13.90;99.90
18434;DHT22;9344;52.294;13.626;2022-10-28T02:59:17;13.80;99.90
18434;DHT22;9344;52.294;13.626;2022-10-28T03:01:43;13.80;99.90
18434;DHT22;9344;52.294;13.626;2022-10-28T03:04:10;13.90;99.90
18434;DHT22;9344;52.294;13.626;2022-10-28T03:06:38;13.90;99.90
18434;DHT22;9344;52.294;13.626;2022-10-28T03:09:04;13.90;99.90
18434;DHT22;9344;52.294;13.626;2022-10-28T03:11:31;13.90;99.90
18434;DHT22;9344;52.294;13.626;2022-10-28T03:13:58;13.90;99.90
18434;DHT22;9344;52.294;13.626;2022-10-28T03:16:25;13.90;99.90
18434;DHT22;9344;52.294;13.626;2022-10-28T03:18:52;13.90;99.90
18434;DHT22;9344;52.294;13.626;2022-10-28T03:21:18;13.90;99.90
18434;DHT22;9344;52.294;13.626;2022-10-28T03:23:46;13.80;99.90
18434;DHT22;9344;52.294;13.626;2022-10-28T03:26:13;13.90;99.90
18434;DHT22;9344;52.294;13.626;2022-10-28T03:28:40;13.90;99.90
18434;DHT22;9344;52.294;13.626;2022-10-28T03:31:06;13.90;99.90
18434;DHT22;9344;52.294;13.626;2022-10-28T03:33:33;13.80;99.90
18434;DHT22;9344;52.294;13.626;2022-10-28T03:35:59;13.80;99.90
18434;DHT22;9344;52.294;13.626;2022-10-28T03:38:26;13.80;99.90
18434;DHT22;9344;52.294;13.626;2022-10-28T03:40:54;13.90;99.90
18434;DHT22;9344;52.294;13.626;2022-10-28T03:43:20;13.80;99.90
18434;DHT22;9344;52.294;13.626;2022-10-28T03:45:47;13.80;99.90
18434;DHT22;9344;52.294;13.626;2022-10-28T03:48:14;13.80;99.90
18434;DHT22;9344;52.294;13.626;2022-10-28T03:50:40;13.80;99.90
18434;DHT22;9344;52.294;13.626;2022-10-28T03:53:07;13.80;99.90
18434;DHT22;9344;52.294;13.626;2022-10-28T03:55:34;13.70;99.90
18434;DHT22;9344;52.294;13.626;2022-10-28T03:58:02;13.70;99.90
18434;DHT22;9344;52.294;13.626;2022-10-28T04:00:29;13.70;99.90
18434;DHT22;9344;52.294;13.626;2022-10-28T04:02:55;13.80;99.90
18434;DHT22;9344;52.294;13.626;2022-10-28T04:05:22;13.80;99.90
18434;DHT22;9344;52.294;13.626;2022-10-28T04:07:48;13.70;99.90
18434;DHT22;9344;52.294;13.626;2022-10-28T04:10:15;13.70;99.90
18434;DHT22;9344;52.294;13.626;2022-10-28T04:12:41;13.70;99.90
18434;DHT22;9344;52.294;13.626;2022-10-28T04:15:09;13.60;99.90
18434;DHT22;9344;52.294;13.626;2022-10-28T04:17:36;14.80;99.90
18434;DHT22;9344;52.294;13.626;2022-10-28T04:20:03;13.60;99.90
18434;DHT22;9344;52.294;13.626;2022-10-28T04:22:29;13.60;99.90
18434;DHT22;9344;52.294;13.626;2022-10-28T04:24:56;13.60;99.90
18434;DHT22;9344;52.294;13.626;2022-10-28T04:27:23;13.50;99.90
18434;DHT22;9344;52.294;13.626;2022-10-28T04:29:49;13.50;99.90
18434;DHT22;9344;52.294;13.626;2022-10-28T04:32:17;13.50;99.90
18434;DHT22;9344;52.294;13.626;2022-10-28T04:34:43;13.50;99.90
18434;DHT22;9344;52.294;13.626;2022-10-28T04:37:10;13.50;99.90
18434;DHT22;9344;52.294;13.626;2022-10-28T04:39:36;13.40;99.90
18434;DHT22;9344;52.294;13.626;2022-10-28T04:42:03;13.40;99.90
18434;DHT22;9344;52.294;13.626;2022-10-28T04:44:29;13.40;99.90
18434;DHT22;9344;52.294;13.626;2022-10-28T04:46:56;13.40;99.90
18434;DHT22;9344;52.294;13.626;2022-10-28T04:49:24;13.40;99.90
18434;DHT22;9344;52.294;13.626;2022-10-28T04:51:50;13.40;99.90
18434;DHT22;9344;52.294;13.626;2022-10-28T04:54:17;13.30;99.90
18434;DHT22;9344;52.294;13.626;2022-10-28T04:56:43;13.30;99.90
18434;DHT22;9344;52.294;13.626;2022-10-28T04:59:10;13.30;99.90
18434;DHT22;9344;52.294;13.626;2022-10-28T05:01:37;13.30;99.90
18434;DHT22;9344;52.294;13.626;2022-10-28T05:04:03;13.20;99.90
18434;DHT22;9344;52.294;13.626;2022-10-28T05:06:31;13.20;99.90
18434;DHT22;9344;52.294;13.626;2022-10-28T05:08:58;13.20;99.90
18434;DHT22;9344;52.294;13.626;2022-10-28T05:11:24;13.20;99.90
18434;DHT22;9344;52.294;13.626;2022-10-28T05:13:51;13.20;99.90
18434;DHT22;9344;52.294;13.626;2022-10-28T05:16:18;13.20;99.90
18434;DHT22;9344;52.294;13.626;2022-10-28T05:18:45;13.20;99.90
18434;DHT22;9344;52.294;13.626;2022-10-28T05:21:11;13.20;99.90
18434;DHT22;9344;52.294;13.626;2022-10-28T05:23:39;13.20;99.90
18434;DHT22;9344;52.294;13.626;2022-10-28T05:26:05;13.20;99.90
18434;DHT22;9344;52.294;13.626;2022-10-28T05:28:32;13.20;99.90
18434;DHT22;9344;52.294;13.626;2022-10-28T05:30:58;13.20;99.90
18434;DHT22;9344;52.294;13.626;2022-10-28T05:33:25;13.20;99.90
18434;DHT22;9344;52.294;13.626;2022-10-28T05:35:52;13.20;99.90
18434;DHT22;9344;52.294;13.626;2022-10-28T05:38:18;13.10;99.90
18434;DHT22;9344;52.294;13.626;2022-10-28T05:40:46;13.10;99.90
18434;DHT22;9344;52.294;13.626;2022-10-28T05:43:12;13.10;99.90
18434;DHT22;9344;52.294;13.626;2022-10-28T05:45:39;13.10;99.90
18434;DHT22;9344;52.294;13.626;2022-10-28T05:48:06;13.10;99.90
18434;DHT22;9344;52.294;13.626;2022-10-28T05:50:33;13.10;99.90
18434;DHT22;9344;52.294;13.626;2022-10-28T05:53:00;13.10;99.90
18434;DHT22;9344;52.294;13.626;2022-10-28T05:55:27;13.10;99.90
18434;DHT22;9344;52.294;13.626;2022-10-28T05:57:56;13.10;99.90
18434;DHT22;9344;52.294;13.626;2022-10-28T06:00:23;13.00;99.90
18434;DHT22;9344;52.294;13.626;2022-10-28T06:02:50;13.00;99.90
18434;DHT22;9344;52.294;13.626;2022-10-28T06:05:17;13.00;99.90
18434;DHT22;9344;52.294;13.626;2022-10-28T06:07:44;13.10;99.90
18434;DHT22;9344;52.294;13.626;2022-10-28T06:10:10;13.10;99.90
18434;DHT22;9344;52.294;13.626;2022-10-28T06:12:37;13.10;99.90
18434;DHT22;9344;52.294;13.626;2022-10-28T06:15:06;13.10;99.90
18434;DHT22;9344;52.294;13.626;2022-10-28T06:17:33;13.10;99.90
18434;DHT22;9344;52.294;13.626;2022-10-28T06:20:00;13.10;99.90
18434;DHT22;9344;52.294;13.626;2022-10-28T06:22:26;13.10;99.90
18434;DHT22;9344;52.294;13.626;2022-10-28T06:24:53;13.10;99.90
18434;DHT22;9344;52.294;13.626;2022-10-28T06:27:19;13.20;99.90
18434;DHT22;9344;52.294;13.626;2022-10-28T06:29:46;13.20;99.90
18434;DHT22;9344;52.294;13.626;2022-10-28T06:32:14;13.10;99.90
18434;DHT22;9344;52.294;13.626;2022-10-28T06:34:40;11.70;99.90
18434;DHT22;9344;52.294;13.626;2022-10-28T06:37:07;13.20;99.90
18434;DHT22;9344;52.294;13.626;2022-10-28T06:39:34;13.20;99.90
18434;DHT22;9344;52.294;13.626;2022-10-28T06:42:02;13.20;99.90
18434;DHT22;9344;52.294;13.626;2022-10-28T06:44:29;13.30;99.90
18434;DHT22;9344;52.294;13.626;2022-10-28T06:46:55;13.30;99.90
18434;DHT22;9344;52.294;13.626;2022-10-28T06:49:23;13.30;99.90
18434;DHT22;9344;52.294;13.626;2022-10-28T06:51:49;13.40;99.90
18434;DHT22;9344;52.294;13.626;2022-10-28T06:54:16;13.40;99.90
18434;DHT22;9344;52.294;13.626;2022-10-28T06:56:42;13.40;99.90
18434;DHT22;9344;52.294;13.626;2022-10-28T06:59:10;13.50;99.90
18434;DHT22;9344;52.294;13.626;2022-10-28T07:01:36;13.50;99.90
18434;DHT22;9344;52.294;13.626;2022-10-28T07:04:03;13.60;99.90
18434;DHT22;9344;52.294;13.626;2022-10-28T07:06:31;13.60;99.90
18434;DHT22;9344;52.294;13.626;2022-10-28T07:08:57;13.60;99.90
18434;DHT22;9344;52.294;13.626;2022-10-28T07:11:24;13.60;99.90
18434;DHT22;9344;52.294;13.626;2022-10-28T07:13:50;13.60;99.90
18434;DHT22;9344;52.294;13.626;2022-10-28T07:16:17;13.70;99.90
18434;DHT22;9344;52.294;13.626;2022-10-28T07:18:43;13.70;99.90
18434;DHT22;9344;52.294;13.626;2022-10-28T07:21:10;13.80;99.90
18434;DHT22;9344;52.294;13.626;2022-10-28T07:23:37;13.90;99.90
18434;DHT22;9344;52.294;13.626;2022-10-28T07:26:05;13.90;99.90
18434;DHT22;9344;52.294;13.626;2022-10-28T07:28:31;14.00;99.90
18434;DHT22;9344;52.294;13.626;2022-10-28T07:30:59;14.00;99.90
18434;DHT22;9344;52.294;13.626;2022-10-28T07:33:26;14.00;99.90
18434;DHT22;9344;52.294;13.626;2022-10-28T07:35:53;14.10;99.90
18434;DHT22;9344;52.294;13.626;2022-10-28T07:38:19;14.20;99.90
18434;DHT22;9344;52.294;13.626;2022-10-28T07:40:48;14.40;99.90
18434;DHT22;9344;52.294;13.626;2022-10-28T07:43:14;14.40;99.90
18434;DHT22;9344;52.294;13.626;2022-10-28T07:45:41;14.50;99.90
18434;DHT22;9344;52.294;13.626;2022-10-28T07:48:08;14.50;99.90
18434;DHT22;9344;52.294;13.626;2022-10-28T07:50:35;14.60;99.90
18434;DHT22;9344;52.294;13.626;2022-10-28T07:53:02;14.70;99.90
18434;DHT22;9344;52.294;13.626;2022-10-28T07:55:28;14.80;99.90
18434;DHT22;9344;52.294;13.626;2022-10-28T07:57:56;14.90;99.90
18434;DHT22;9344;52.294;13.626;2022-10-28T08:00:23;15.10;99.90
18434;DHT22;9344;52.294;13.626;2022-10-28T08:02:50;15.10;99.90
18434;DHT22;9344;52.294;13.626;2022-10-28T08:05:16;15.20;99.90
18434;DHT22;9344;52.294;13.626;2022-10-28T08:07:43;15.30;99.90
18434;DHT22;9344;52.294;13.626;2022-10-28T08:10:11;15.40;99.90
18434;DHT22;9344;52.294;13.626;2022-10-28T08:12:37;15.50;99.90
18434;DHT22;9344;52.294;13.626;2022-10-28T08:15:06;15.60;99.90
18434;DHT22;9344;52.294;13.626;2022-10-28T08:17:34;15.70;99.90
18434;DHT22;9344;52.294;13.626;2022-10-28T08:20:01;15.80;99.90
18434;DHT22;9344;52.294;13.626;2022-10-28T08:22:27;15.80;99.90
18434;DHT22;9344;52.294;13.626;2022-10-28T08:24:54;15.90;99.90
18434;DHT22;9344;52.294;13.626;2022-10-28T08:27:20;15.90;99.90
18434;DHT22;9344;52.294;13.626;2022-10-28T08:29:47;16.00;99.90
18434;DHT22;9344;52.294;13.626;2022-10-28T08:32:15;16.00;99.90
18434;DHT22;9344;52.294;13.626;2022-10-28T08:34:41;16.10;99.90
18434;DHT22;9344;52.294;13.626;2022-10-28T08:37:08;16.20;99.90
18434;DHT22;9344;52.294;13.626;2022-10-28T08:39:34;16.20;99.90
18434;DHT22;9344;52.294;13.626;2022-10-28T08:42:14;16.30;99.90
18434;DHT22;9344;52.294;13.626;2022-10-28T08:45:00;16.40;99.90
18434;DHT22;9344;52.294;13.626;2022-10-28T08:47:38;16.50;99.90
18434;DHT22;9344;52.294;13.626;2022-10-28T08:50:12;16.60;99.90
18434;DHT22;9344;52.294;13.626;2022-10-28T08:52:42;16.80;99.90
18434;DHT22;9344;52.294;13.626;2022-10-28T08:55:14;16.70;99.90
18434;DHT22;9344;52.294;13.626;2022-10-28T08:57:44;16.80;99.90
18434;DHT22;9344;52.294;13.626;2022-10-28T09:00:18;16.90;99.90
18434;DHT22;9344;52.294;13.626;2022-10-28T09:03:00;17.60;99.90
18434;DHT22;9344;52.294;13.626;2022-10-28T09:05:30;17.10;99.90
18434;DHT22;9344;52.294;13.626;2022-10-28T09:07:57;17.30;99.90
18434;DHT22;9344;52.294;13.626;2022-10-28T09:10:39;17.30;99.90
18434;DHT22;9344;52.294;13.626;2022-10-28T09:13:15;17.40;99.90
18434;DHT22;9344;52.294;13.626;2022-10-28T09:15:48;17.50;99.90
18434;DHT22;9344;52.294;13.626;2022-10-28T09:18:19;17.60;99.90
18434;DHT22;9344;52.294;13.626;2022-10-28T09:20:51;17.70;99.90
18434;DHT22;9344;52.294;13.626;2022-10-28T09:23:21;17.80;99.90
18434;DHT22;9344;52.294;13.626;2022-10-28T09:25:58;17.90;99.90
18434;DHT22;9344;52.294;13.626;2022-10-28T09:28:38;18.00;99.90
18434;DHT22;9344;52.294;13.626;2022-10-28T09:31:12;18.20;99.90
18434;DHT22;9344;52.294;13.626;2022-10-28T09:33:52;18.20;99.90
18434;DHT22;9344;52.294;13.626;2022-10-28T09:36:26;18.40;99.90
18434;DHT22;9344;52.294;13.626;2022-10-28T09:38:57;18.40;99.90
18434;DHT22;9344;52.294;13.626;2022-10-28T09:41:27;18.50;99.90
18434;DHT22;9344;52.294;13.626;2022-10-28T09:43:58;18.60;99.90
18434;DHT22;9344;52.294;13.626;2022-10-28T09:46:28;18.70;99.90
18434;DHT22;9344;52.294;13.626;2022-10-28T09:49:01;18.80;99.90
18434;DHT22;9344;52.294;13.626;2022-10-28T09:51:33;18.80;99.90
18434;DHT22;9344;52.294;13.626;2022-10-28T09:54:09;18.90;99.90
18434;DHT22;9344;52.294;13.626;2022-10-28T09:56:36;19.00;99.90
18434;DHT22;9344;52.294;13.626;2022-10-28T09:59:03;19.00;99.90
18434;DHT22;9344;52.294;13.626;2022-10-28T10:01:32;19.20;99.90
18434;DHT22;9344;52.294;13.626;2022-10-28T10:04:01;19.10;99.90
18434;DHT22;9344;52.294;13.626;2022-10-28T10:06:32;19.30;99.90
18434;DHT22;9344;52.294;13.626;2022-10-28T10:09:00;19.30;99.90
18434;DHT22;9344;52.294;13.626;2022-10-28T10:11:30;19.30;99.90
18434;DHT22;9344;52.294;13.626;2022-10-28T10:14:03;19.40;99.90
18434;DHT22;9344;52.294;13.626;2022-10-28T10:16:37;19.50;99.90
18434;DHT22;9344;52.294;13.626;2022-10-28T10:19:08;19.60;99.90
18434;DHT22;9344;52.294;13.626;2022-10-28T10:21:44;19.70;99.90
18434;DHT22;9344;52.294;13.626;2022-10-28T10:24:25;19.80;99.90
18434;DHT22;9344;52.294;13.626;2022-10-28T10:26:54;19.80;99.90
18434;DHT22;9344;52.294;13.626;2022-10-28T10:29:21;19.90;99.90
18434;DHT22;9344;52.294;13.626;2022-10-28T10:32:06;19.90;99.90
18434;DHT22;9344;52.294;13.626;2022-10-28T10:34:35;19.90;99.90
18434;DHT22;9344;52.294;13.626;2022-10-28T10:37:02;20.00;99.90
18434;DHT22;9344;52.294;13.626;2022-10-28T10:39:33;20.10;99.90
18434;DHT22;9344;52.294;13.626;2022-10-28T10:42:00;20.20;99.90
18434;DHT22;9344;52.294;13.626;2022-10-28T10:44:32;20.40;99.90
18434;DHT22;9344;52.294;13.626;2022-10-28T10:47:19;20.50;99.90
18434;DHT22;9344;52.294;13.626;2022-10-28T10:49:48;20.30;99.90
18434;DHT22;9344;52.294;13.626;2022-10-28T10:52:18;20.70;99.90
18434;DHT22;9344;52.294;13.626;2022-10-28T10:54:57;20.80;99.90
18434;DHT22;9344;52.294;13.626;2022-10-28T10:57:25;20.90;99.90
18434;DHT22;9344;52.294;13.626;2022-10-28T10:59:53;21.00;99.90
18434;DHT22;9344;52.294;13.626;2022-10-28T11:02:23;21.10;99.90
18434;DHT22;9344;52.294;13.626;2022-10-28T11:04:55;21.20;99.90
18434;DHT22;9344;52.294;13.626;2022-10-28T11:07:22;21.20;99.90
18434;DHT22;9344;52.294;13.626;2022-10-28T11:09:49;21.30;99.90
18434;DHT22;9344;52.294;13.626;2022-10-28T11:12:24;21.40;99.90
18434;DHT22;9344;52.294;13.626;2022-10-28T11:14:54;21.50;99.90
18434;DHT22;9344;52.294;13.626;2022-10-28T11:17:23;21.60;99.90
18434;DHT22;9344;52.294;13.626;2022-10-28T11:19:54;21.70;99.90
18434;DHT22;9344;52.294;13.626;2022-10-28T11:22:30;21.80;99.90
18434;DHT22;9344;52.294;13.626;2022-10-28T11:25:18;21.80;99.90
18434;DHT22;9344;52.294;13.626;2022-10-28T11:27:51;21.90;99.90
18434;DHT22;9344;52.294;13.626;2022-10-28T11:30:24;21.90;99.90
18434;DHT22;9344;52.294;13.626;2022-10-28T11:32:59;22.00;99.90
18434;DHT22;9344;52.294;13.626;2022-10-28T11:35:41;22.10;99.90
18434;DHT22;9344;52.294;13.626;2022-10-28T11:38:17;22.10;99.90
18434;DHT22;9344;52.294;13.626;2022-10-28T11:41:02;22.20;99.90
18434;DHT22;9344;52.294;13.626;2022-10-28T11:43:37;22.30;99.90
18434;DHT22;9344;52.294;13.626;2022-10-28T11:46:12;22.30;99.90
18434;DHT22;9344;52.294;13.626;2022-10-28T11:48:55;22.40;99.90
18434;DHT22;9344;52.294;13.626;2022-10-28T11:51:32;22.40;99.90
18434;DHT22;9344;52.294;13.626;2022-10-28T11:54:21;22.50;99.90
18434;DHT22;9344;52.294;13.626;2022-10-28T11:56:54;22.50;99.90
18434;DHT22;9344;52.294;13.626;2022-10-28T12:02:31;22.60;99.90
18434;DHT22;9344;52.294;13.626;2022-10-28T12:05:07;22.60;99.90
18434;DHT22;9344;52.294;13.626;2022-10-28T12:07:54;22.60;99.90
18434;DHT22;9344;52.294;13.626;2022-10-28T12:10:34;22.70;99.90
18434;DHT22;9344;52.294;13.626;2022-10-28T12:13:09;22.70;99.90
18434;DHT22;9344;52.294;13.626;2022-10-28T12:15:43;22.70;99.90
18434;DHT22;9344;52.294;13.626;2022-10-28T12:18:17;22.70;99.90
18434;DHT22;9344;52.294;13.626;2022-10-28T12:20:50;22.80;99.90
18434;DHT22;9344;52.294;13.626;2022-10-28T12:23:21;22.80;99.90
18434;DHT22;9344;52.294;13.626;2022-10-28T12:25:52;22.90;99.90
18434;DHT22;9344;52.294;13.626;2022-10-28T12:28:22;22.90;99.90
18434;DHT22;9344;52.294;13.626;2022-10-28T12:30:51;22.80;99.90
18434;DHT22;9344;52.294;13.626;2022-10-28T12:33:21;22.80;99.90
18434;DHT22;9344;52.294;13.626;2022-10-28T12:35:53;22.80;99.90
18434;DHT22;9344;52.294;13.626;2022-10-28T12:38:27;22.80;99.90
18434;DHT22;9344;52.294;13.626;2022-10-28T12:41:03;22.80;99.90
18434;DHT22;9344;52.294;13.626;2022-10-28T12:43:34;22.90;99.90
18434;DHT22;9344;52.294;13.626;2022-10-28T12:46:03;23.00;99.90
18434;DHT22;9344;52.294;13.626;2022-10-28T12:48:34;23.10;99.90
18434;DHT22;9344;52.294;13.626;2022-10-28T12:51:09;23.10;99.90
18434;DHT22;9344;52.294;13.626;2022-10-28T12:53:43;23.20;99.90
18434;DHT22;9344;52.294;13.626;2022-10-28T12:56:15;23.20;99.90
18434;DHT22;9344;52.294;13.626;2022-10-28T12:58:49;23.20;99.90
18434;DHT22;9344;52.294;13.626;2022-10-28T13:01:18;23.30;99.90
18434;DHT22;9344;52.294;13.626;2022-10-28T13:03:48;23.30;99.90
18434;DHT22;9344;52.294;13.626;2022-10-28T13:06:39;23.30;99.90
18434;DHT22;9344;52.294;13.626;2022-10-28T13:09:33;23.30;99.90
18434;DHT22;9344;52.294;13.626;2022-10-28T13:18:13;23.40;99.90
18434;DHT22;9344;52.294;13.626;2022-10-28T13:20:58;23.40;99.90
18434;DHT22;9344;52.294;13.626;2022-10-28T13:23:32;23.50;99.90
18434;DHT22;9344;52.294;13.626;2022-10-28T13:26:08;23.50;99.90
18434;DHT22;9344;52.294;13.626;2022-10-28T13:28:43;23.50;99.90
18434;DHT22;9344;52.294;13.626;2022-10-28T13:31:11;23.60;99.90
18434;DHT22;9344;52.294;13.626;2022-10-28T13:33:47;23.50;99.90
18434;DHT22;9344;52.294;13.626;2022-10-28T13:36:17;23.60;99.90
18434;DHT22;9344;52.294;13.626;2022-10-28T13:38:52;23.60;99.90
18434;DHT22;9344;52.294;13.626;2022-10-28T13:41:33;23.60;99.90
18434;DHT22;9344;52.294;13.626;2022-10-28T13:44:28;23.60;99.90
18434;DHT22;9344;52.294;13.626;2022-10-28T13:47:22;23.70;99.90
18434;DHT22;9344;52.294;13.626;2022-10-28T13:50:13;23.60;99.90
18434;DHT22;9344;52.294;13.626;2022-10-28T13:52:41;23.70;99.90
18434;DHT22;9344;52.294;13.626;2022-10-28T13:55:20;23.80;99.90
18434;DHT22;9344;52.294;13.626;2022-10-28T13:57:50;23.80;99.90
18434;DHT22;9344;52.294;13.626;2022-10-28T14:00:34;23.90;99.90
18434;DHT22;9344;52.294;13.626;2022-10-28T14:03:02;24.00;99.90
18434;DHT22;9344;52.294;13.626;2022-10-28T14:05:51;24.00;99.90
18434;DHT22;9344;52.294;13.626;2022-10-28T14:08:20;24.10;99.90
18434;DHT22;9344;52.294;13.626;2022-10-28T14:11:03;24.20;99.90
18434;DHT22;9344;52.294;13.626;2022-10-28T14:13:33;24.20;99.90
18434;DHT22;9344;52.294;13.626;2022-10-28T14:16:22;24.40;99.90
18434;DHT22;9344;52.294;13.626;2022-10-28T14:18:56;24.30;99.90
18434;DHT22;9344;52.294;13.626;2022-10-28T14:21:24;24.50;99.90
18434;DHT22;9344;52.294;13.626;2022-10-28T14:24:13;24.50;99.90
18434;DHT22;9344;52.294;13.626;2022-10-28T14:33:26;24.60;99.90
18434;DHT22;9344;52.294;13.626;2022-10-28T14:36:20;24.60;99.90
18434;DHT22;9344;52.294;13.626;2022-10-28T14:39:14;24.70;99.90
18434;DHT22;9344;52.294;13.626;2022-10-28T14:42:11;24.70;99.90
18434;DHT22;9344;52.294;13.626;2022-10-28T14:44:54;24.70;99.90
18434;DHT22;9344;52.294;13.626;2022-10-28T14:47:40;24.60;99.90
18434;DHT22;9344;52.294;13.626;2022-10-28T14:50:18;24.50;99.90
18434;DHT22;9344;52.294;13.626;2022-10-28T14:52:46;24.50;99.90
18434;DHT22;9344;52.294;13.626;2022-10-28T14:55:19;24.50;99.90
18434;DHT22;9344;52.294;13.626;2022-10-28T14:57:47;24.30;99.90
18434;DHT22;9344;52.294;13.626;2022-10-28T15:00:18;24.20;99.90
18434;DHT22;9344;52.294;13.626;2022-10-28T15:02:45;24.10;99.90
18434;DHT22;9344;52.294;13.626;2022-10-28T15:05:16;24.00;99.90
18434;DHT22;9344;52.294;13.626;2022-10-28T15:07:45;23.90;99.90
18434;DHT22;9344;52.294;13.626;2022-10-28T15:10:14;23.90;99.90
18434;DHT22;9344;52.294;13.626;2022-10-28T15:12:42;23.70;99.90
18434;DHT22;9344;52.294;13.626;2022-10-28T15:15:17;24.10;99.90
18434;DHT22;9344;52.294;13.626;2022-10-28T15:17:44;23.70;99.90
18434;DHT22;9344;52.294;13.626;2022-10-28T15:20:20;23.40;99.90
18434;DHT22;9344;52.294;13.626;2022-10-28T15:22:47;23.30;99.90
18434;DHT22;9344;52.294;13.626;2022-10-28T15:25:15;23.20;99.90
18434;DHT22;9344;52.294;13.626;2022-10-28T15:27:44;23.10;99.90
18434;DHT22;9344;52.294;13.626;2022-10-28T15:30:14;22.90;99.90
18434;DHT22;9344;52.294;13.626;2022-10-28T15:32:41;22.80;99.90
18434;DHT22;9344;52.294;13.626;2022-10-28T15:35:35;22.70;99.90
18434;DHT22;9344;52.294;13.626;2022-10-28T15:38:23;22.70;99.90
18434;DHT22;9344;52.294;13.626;2022-10-28T15:40:50;22.50;99.90
18434;DHT22;9344;52.294;13.626;2022-10-28T15:43:18;22.50;99.90
18434;DHT22;9344;52.294;13.626;2022-10-28T15:45:46;22.40;99.90
18434;DHT22;9344;52.294;13.626;2022-10-28T15:48:14;22.20;99.90
18434;DHT22;9344;52.294;13.626;2022-10-28T15:51:13;22.10;99.90
18434;DHT22;9344;52.294;13.626;2022-10-28T15:53:40;22.00;99.90
18434;DHT22;9344;52.294;13.626;2022-10-28T15:56:19;21.90;99.90
18434;DHT22;9344;52.294;13.626;2022-10-28T15:58:48;21.90;99.90
18434;DHT22;9344;52.294;13.626;2022-10-28T16:01:34;21.80;99.90
18434;DHT22;9344;52.294;13.626;2022-10-28T16:04:02;21.70;99.90
18434;DHT22;9344;52.294;13.626;2022-10-28T16:06:32;21.60;99.90
18434;DHT22;9344;52.294;13.626;2022-10-28T16:09:05;21.50;99.90
18434;DHT22;9344;52.294;13.626;2022-10-28T16:11:34;21.40;99.90